Time;durP1;ratioP1;P1;durP2;ratioP2;P2;SDS_P1;SDS_P2;PMS_P1;PMS_P2;Temp;Humidity;BMP_temperature;BMP_pressure;BME280_temperature;BME280_humidity;BME280_pressure;Samples;Min_cycle;Max_cycle;Signal;HPM_P1;HPM_P2
2022/04/20 00:00:28;;;;;;;2.80;2.50;;;13.60;35.10;;;;;;5028227;28;20215;-43
2022/04/20 00:02:54;;;;;;;2.33;2.13;;;13.50;35.50;;;;;;5022436;28;20189;-44
2022/04/20 00:05:20;;;;;;;3.47;2.20;;;13.50;35.60;;;;;;5024930;28;20221;-44
2022/04/20 00:07:45;;;;;;;4.10;2.70;;;13.60;35.60;;;;;;5028265;28;20241;-43
2022/04/20 00:10:11;;;;;;;3.93;3.00;;;13.50;36.10;;;;;;5026412;28;20197;-45
2022/04/20 00:12:36;;;;;;;4.30;2.80;;;13.20;36.80;;;;;;5022511;28;20239;-42
2022/04/20 00:15:03;;;;;;;3.27;3.00;;;13.10;37.20;;;;;;5026232;28;20243;-43
2022/04/20 00:17:28;;;;;;;4.53;2.50;;;13.20;37.60;;;;;;5024942;28;20201;-45
2022/04/20 00:19:54;;;;;;;2.73;2.53;;;13.10;37.70;;;;;;5028172;28;20456;-43
2022/04/20 00:22:19;;;;;;;4.40;2.93;;;13.20;37.90;;;;;;5027630;28;20804;-45
2022/04/20 00:24:45;;;;;;;4.77;3.10;;;13.10;38.20;;;;;;5021029;28;20193;-45
2022/04/20 00:27:10;;;;;;;2.73;2.53;;;13.20;38.20;;;;;;5025182;28;20283;-46
2022/04/20 00:29:36;;;;;;;4.07;3.20;;;13.20;38.40;;;;;;5022740;28;20189;-43
2022/04/20 00:32:02;;;;;;;3.57;3.00;;;13.30;38.30;;;;;;5025935;28;20569;-43
2022/04/20 00:34:27;;;;;;;4.97;3.37;;;13.40;38.00;;;;;;5023459;28;20197;-45
2022/04/20 00:36:53;;;;;;;3.20;2.90;;;13.40;38.10;;;;;;5025928;28;20189;-43
2022/04/20 00:39:20;;;;;;;3.43;3.13;;;13.50;38.20;;;;;;5029591;28;20255;-43
2022/04/20 00:41:45;;;;;;;4.13;3.10;;;13.40;38.40;;;;;;5027909;28;20539;-44
2022/04/20 00:44:11;;;;;;;3.37;2.83;;;13.30;38.60;;;;;;5026577;28;20490;-42
2022/04/20 00:46:38;;;;;;;3.50;3.20;;;13.40;38.60;;;;;;5028831;28;20447;-44
2022/04/20 00:49:06;;;;;;;3.33;3.00;;;13.60;38.50;;;;;;5031195;28;20474;-44
2022/04/20 00:51:32;;;;;;;3.00;2.80;;;13.50;38.60;;;;;;5023573;28;20978;-42
2022/04/20 00:54:01;;;;;;;4.00;3.37;;;13.50;38.70;;;;;;5029641;28;20529;-43
2022/04/20 00:56:28;;;;;;;4.47;3.03;;;13.50;38.60;;;;;;5016662;28;20501;-43
2022/04/20 00:58:57;;;;;;;4.90;3.60;;;13.50;38.70;;;;;;5023088;28;20453;-43
2022/04/20 01:01:23;;;;;;;5.87;3.80;;;13.50;38.90;;;;;;5018298;28;20478;-43
2022/04/20 01:03:49;;;;;;;4.47;4.00;;;13.30;39.20;;;;;;5022702;28;20452;-42
2022/04/20 01:06:15;;;;;;;5.03;3.97;;;13.30;39.40;;;;;;5023616;28;20467;-42
2022/04/20 01:08:40;;;;;;;3.40;3.10;;;13.30;39.40;;;;;;5030554;28;20739;-43
2022/04/20 01:11:06;;;;;;;3.53;3.10;;;13.30;39.60;;;;;;5027733;28;20243;-43
2022/04/20 01:13:31;;;;;;;4.00;3.60;;;13.40;39.50;;;;;;5022875;28;20216;-45
2022/04/20 01:15:57;;;;;;;3.57;3.07;;;13.20;39.70;;;;;;5025398;28;20189;-45
2022/04/20 01:18:23;;;;;;;5.47;3.47;;;13.20;40.00;;;;;;5031076;28;20189;-45
2022/04/20 01:20:49;;;;;;;5.93;2.97;;;13.20;39.90;;;;;;5016780;28;21480;-42
2022/04/20 01:23:14;;;;;;;6.00;3.03;;;13.20;40.00;;;;;;5027479;28;20289;-45
2022/04/20 01:25:40;;;;;;;6.97;3.83;;;13.10;40.10;;;;;;5026155;28;20272;-45
2022/04/20 01:28:07;;;;;;;6.50;3.73;;;13.20;40.10;;;;;;5026921;28;20229;-43
2022/04/20 01:30:33;;;;;;;4.13;3.40;;;13.30;40.00;;;;;;5028795;28;20440;-43
2022/04/20 01:33:00;;;;;;;3.43;3.13;;;13.30;39.90;;;;;;5022365;28;20505;-46
2022/04/20 01:35:26;;;;;;;3.90;3.40;;;13.30;39.90;;;;;;5020617;28;20460;-45
2022/04/20 01:37:52;;;;;;;5.13;3.57;;;13.20;40.00;;;;;;5027660;28;20475;-42
2022/04/20 01:40:18;;;;;;;4.17;3.63;;;13.10;40.30;;;;;;5022140;28;20531;-45
2022/04/20 01:42:44;;;;;;;4.30;3.90;;;13.10;40.50;;;;;;5027075;28;20451;-45
2022/04/20 01:45:10;;;;;;;4.10;3.70;;;13.00;40.60;;;;;;5027449;28;20513;-45
2022/04/20 01:47:36;;;;;;;3.33;3.00;;;13.00;40.90;;;;;;5026753;28;21019;-42
2022/04/20 01:50:02;;;;;;;4.63;4.17;;;13.10;40.70;;;;;;5019685;28;20211;-43
2022/04/20 01:52:27;;;;;;;3.17;2.87;;;13.20;40.60;;;;;;5023552;28;20488;-45
2022/04/20 01:54:53;;;;;;;3.70;3.40;;;13.30;40.30;;;;;;5023229;28;20185;-43
2022/04/20 01:57:18;;;;;;;4.60;3.90;;;13.50;40.10;;;;;;5029389;28;20197;-45
2022/04/20 01:59:44;;;;;;;5.87;3.63;;;13.50;39.70;;;;;;5024543;28;20576;-44
2022/04/20 02:04:53;;;;;;;4.03;3.63;;;13.60;39.60;;;;;;5020194;28;20243;-46
2022/04/20 02:07:19;;;;;;;4.73;3.70;;;13.70;39.30;;;;;;5024358;28;20448;-42
2022/04/20 02:09:45;;;;;;;3.63;3.33;;;13.50;39.30;;;;;;5024305;28;20228;-45
2022/04/20 02:12:10;;;;;;;4.03;3.73;;;13.50;39.50;;;;;;5025091;28;20683;-43
2022/04/20 02:14:36;;;;;;;4.00;3.70;;;13.50;39.60;;;;;;5024171;28;20215;-42
2022/04/20 02:17:01;;;;;;;3.93;3.53;;;13.50;39.50;;;;;;5028029;28;20194;-44
2022/04/20 02:19:27;;;;;;;4.20;3.77;;;13.50;39.40;;;;;;5027154;28;20239;-43
2022/04/20 02:21:53;;;;;;;4.70;3.80;;;13.50;39.60;;;;;;5020884;28;20193;-43
2022/04/20 02:24:18;;;;;;;3.50;3.20;;;13.40;39.70;;;;;;5023663;28;20224;-43
2022/04/20 02:26:44;;;;;;;4.53;4.03;;;13.30;40.00;;;;;;5024600;28;20219;-42
2022/04/20 02:29:09;;;;;;;3.60;3.30;;;13.20;40.20;;;;;;5027398;28;20263;-43
2022/04/20 02:31:35;;;;;;;3.67;3.07;;;13.10;40.40;;;;;;5019398;28;20260;-42
2022/04/20 02:34:01;;;;;;;4.30;3.90;;;13.20;40.30;;;;;;5027494;28;20203;-43
2022/04/20 02:36:27;;;;;;;4.00;3.47;;;13.20;40.30;;;;;;5023168;28;20202;-43
2022/04/20 02:38:53;;;;;;;3.90;3.60;;;13.20;40.20;;;;;;5027032;28;20228;-42
2022/04/20 02:41:19;;;;;;;4.20;3.90;;;13.30;40.00;;;;;;5018463;28;20494;-46
2022/04/20 02:43:44;;;;;;;4.53;3.40;;;13.40;39.80;;;;;;5027217;28;20448;-45
2022/04/20 02:46:11;;;;;;;4.00;3.60;;;13.40;39.70;;;;;;5024762;28;20203;-45
2022/04/20 02:48:36;;;;;;;4.30;3.37;;;13.40;39.80;;;;;;5026116;28;20279;-42
2022/04/20 02:51:02;;;;;;;5.13;3.50;;;13.40;39.80;;;;;;5023278;28;20467;-43
2022/04/20 02:53:28;;;;;;;4.80;4.10;;;13.30;40.00;;;;;;5024729;28;20450;-45
2022/04/20 02:55:53;;;;;;;3.40;3.10;;;13.30;40.00;;;;;;5024231;28;20444;-45
2022/04/20 02:58:19;;;;;;;3.80;3.50;;;13.20;39.90;;;;;;5025045;28;20706;-44
2022/04/20 03:00:45;;;;;;;4.33;3.60;;;13.30;40.00;;;;;;5027705;28;20586;-44
2022/04/20 03:03:12;;;;;;;5.47;3.40;;;13.20;40.00;;;;;;5025144;28;20205;-44
2022/04/20 03:05:38;;;;;;;6.73;3.87;;;13.20;40.10;;;;;;5028109;28;20865;-45
2022/04/20 03:08:04;;;;;;;3.83;3.50;;;13.10;40.10;;;;;;5024776;28;20455;-45
2022/04/20 03:10:29;;;;;;;3.67;3.30;;;13.00;40.20;;;;;;5024329;28;20446;-44
2022/04/20 03:12:55;;;;;;;3.67;3.40;;;13.00;40.50;;;;;;5022261;28;20678;-44
2022/04/20 03:15:20;;;;;;;3.83;3.53;;;13.00;40.80;;;;;;5021763;28;20879;-44
2022/04/20 03:17:46;;;;;;;4.30;3.23;;;13.00;41.00;;;;;;5022393;28;20615;-44
2022/04/20 03:20:12;;;;;;;4.50;3.80;;;13.00;41.10;;;;;;5020456;28;20185;-44
2022/04/20 03:22:38;;;;;;;4.60;3.80;;;12.90;41.00;;;;;;5023112;28;20197;-45
2022/04/20 03:25:04;;;;;;;4.40;4.00;;;12.60;41.60;;;;;;5019451;28;20189;-44
2022/04/20 03:27:30;;;;;;;5.83;4.10;;;12.70;41.70;;;;;;5026258;28;20197;-44
2022/04/20 03:29:55;;;;;;;4.60;3.50;;;12.80;41.50;;;;;;5021397;28;20486;-44
2022/04/20 03:32:21;;;;;;;4.10;3.70;;;12.80;41.20;;;;;;5028451;28;20330;-44
2022/04/20 03:34:47;;;;;;;3.63;3.33;;;12.80;41.10;;;;;;5018924;28;20700;-44
2022/04/20 03:37:13;;;;;;;4.17;3.50;;;12.70;41.20;;;;;;5021232;28;20617;-44
2022/04/20 03:39:39;;;;;;;5.53;3.97;;;12.70;41.20;;;;;;5026781;28;20196;-45
2022/04/20 03:42:05;;;;;;;4.33;3.63;;;12.70;41.30;;;;;;5024157;28;20225;-44
2022/04/20 03:44:32;;;;;;;5.07;3.73;;;12.70;41.30;;;;;;5021991;28;20452;-44
2022/04/20 03:46:57;;;;;;;6.20;4.00;;;12.70;41.50;;;;;;5013813;28;20960;-44
2022/04/20 03:49:23;;;;;;;4.07;3.60;;;12.70;41.40;;;;;;5019659;28;20436;-44
2022/04/20 03:51:49;;;;;;;4.00;3.70;;;12.70;41.30;;;;;;5021181;28;20224;-44
2022/04/20 03:54:14;;;;;;;3.60;3.30;;;12.70;41.30;;;;;;5018668;28;20193;-45
2022/04/20 03:59:24;;;;;;;5.40;4.30;;;12.60;41.50;;;;;;5024362;28;20506;-45
2022/04/20 04:01:51;;;;;;;5.63;3.20;;;12.50;41.70;;;;;;5026138;28;20440;-44
2022/04/20 04:04:20;;;;;;;4.43;3.93;;;12.40;41.70;;;;;;5019557;28;20557;-44
2022/04/20 04:06:46;;;;;;;5.10;3.90;;;12.30;41.60;;;;;;5018422;28;20483;-44
2022/04/20 04:09:12;;;;;;;4.43;4.03;;;12.30;41.70;;;;;;5025443;28;20502;-45
2022/04/20 04:11:38;;;;;;;4.77;3.83;;;12.30;41.80;;;;;;5022568;28;20484;-44
2022/04/20 04:14:04;;;;;;;4.37;3.97;;;12.20;41.80;;;;;;5020126;28;20554;-45
2022/04/20 04:16:29;;;;;;;3.57;3.27;;;12.20;41.80;;;;;;5017740;28;20193;-44
2022/04/20 04:18:55;;;;;;;4.10;3.73;;;12.20;42.10;;;;;;5019567;28;20189;-46
2022/04/20 04:21:21;;;;;;;4.20;3.67;;;12.10;42.10;;;;;;5020121;28;20228;-44
2022/04/20 04:23:47;;;;;;;4.10;3.70;;;12.20;42.00;;;;;;5019366;28;20649;-45
2022/04/20 04:26:13;;;;;;;3.77;3.47;;;12.10;41.90;;;;;;5022885;28;20235;-48
2022/04/20 04:28:40;;;;;;;4.20;3.80;;;12.10;42.00;;;;;;5025087;28;20487;-45
2022/04/20 04:31:06;;;;;;;14.27;3.83;;;12.00;42.10;;;;;;5020152;28;20487;-44
2022/04/20 04:33:34;;;;;;;5.00;4.33;;;12.00;42.30;;;;;;5020654;28;21162;-45
2022/04/20 04:36:00;;;;;;;4.80;4.30;;;11.90;42.20;;;;;;5019488;28;20447;-44
2022/04/20 04:38:26;;;;;;;4.23;3.67;;;11.90;42.40;;;;;;5027546;28;20471;-43
2022/04/20 04:40:53;;;;;;;3.97;3.67;;;11.80;42.60;;;;;;5027875;28;20448;-44
2022/04/20 04:43:18;;;;;;;6.10;4.00;;;11.80;42.70;;;;;;5031170;28;20212;-45
2022/04/20 04:48:38;;;;;;;8.63;4.13;;;11.60;42.90;;;;;;5025437;28;21185;-44
2022/04/20 04:51:05;;;;;;;5.33;4.00;;;11.60;43.00;;;;;;5023255;28;20501;-44
2022/04/20 04:53:30;;;;;;;4.20;3.90;;;11.60;43.30;;;;;;5027920;28;20501;-46
2022/04/20 04:55:56;;;;;;;5.00;4.20;;;11.60;43.30;;;;;;5024362;28;20440;-44
2022/04/20 04:58:22;;;;;;;4.87;4.00;;;11.60;43.40;;;;;;5028562;28;20218;-44
2022/04/20 05:00:48;;;;;;;4.47;4.10;;;11.70;43.70;;;;;;5023226;28;20201;-44
2022/04/20 05:03:17;;;;;;;4.20;3.80;;;11.70;43.60;;;;;;5026621;28;20239;-45
2022/04/20 05:05:46;;;;;;;4.50;4.10;;;11.70;43.60;;;;;;5030309;28;20713;-44
2022/04/20 05:08:11;;;;;;;5.40;3.60;;;11.70;43.60;;;;;;5021232;28;20502;-44
2022/04/20 05:10:37;;;;;;;4.93;4.53;;;11.70;43.50;;;;;;5028188;28;20910;-44
2022/04/20 05:13:04;;;;;;;5.13;4.40;;;11.70;44.10;;;;;;5029648;28;20224;-45
2022/04/20 05:15:31;;;;;;;5.53;3.50;;;11.60;43.80;;;;;;5027932;28;20193;-43
2022/04/20 05:17:56;;;;;;;6.00;4.60;;;11.60;44.20;;;;;;5025192;28;20440;-44
2022/04/20 05:20:22;;;;;;;5.80;3.83;;;11.70;45.00;;;;;;5020308;28;20497;-44
2022/04/20 05:22:48;;;;;;;4.80;4.07;;;12.00;45.30;;;;;;5023521;28;20276;-44
2022/04/20 05:25:14;;;;;;;4.40;4.10;;;12.20;44.80;;;;;;5025037;28;20193;-45
2022/04/20 05:27:40;;;;;;;4.93;4.47;;;12.40;44.40;;;;;;5029618;28;20443;-44
2022/04/20 05:30:08;;;;;;;5.13;3.87;;;12.50;43.90;;;;;;5024291;28;20648;-45
2022/04/20 05:32:34;;;;;;;4.13;3.73;;;12.60;43.60;;;;;;5025689;28;20488;-44
2022/04/20 05:35:01;;;;;;;4.30;3.20;;;12.60;43.70;;;;;;5022741;28;20436;-44
2022/04/20 05:42:54;;;;;;;3.70;3.40;;;13.40;42.40;;;;;;5024125;28;20460;-47
2022/04/20 05:45:20;;;;;;;9.90;5.00;;;13.70;41.50;;;;;;5030115;28;20946;-45
2022/04/20 05:47:46;;;;;;;5.03;4.33;;;14.00;40.70;;;;;;5014942;28;20237;-44
2022/04/20 05:50:12;;;;;;;3.83;3.53;;;14.20;40.20;;;;;;5027091;28;20194;-44
2022/04/20 05:52:38;;;;;;;4.90;4.03;;;14.40;39.90;;;;;;5028163;28;20497;-45
2022/04/20 05:55:04;;;;;;;5.20;3.90;;;14.60;39.50;;;;;;5018227;28;21246;-44
2022/04/20 05:57:30;;;;;;;8.30;3.90;;;14.80;39.00;;;;;;5028965;28;20212;-45
2022/04/20 05:59:56;;;;;;;6.27;3.83;;;14.90;38.40;;;;;;5027154;28;20444;-46
2022/04/20 06:02:22;;;;;;;5.10;4.00;;;15.00;38.40;;;;;;5014204;28;20198;-45
2022/04/20 06:04:47;;;;;;;4.30;3.87;;;15.10;38.20;;;;;;5023450;28;20225;-46
2022/04/20 06:07:13;;;;;;;5.00;4.40;;;15.30;37.90;;;;;;5030372;28;20205;-44
2022/04/20 06:09:39;;;;;;;8.13;3.97;;;15.40;37.40;;;;;;5030947;28;20272;-46
2022/04/20 06:12:07;;;;;;;4.10;3.70;;;15.50;37.30;;;;;;5037028;28;20303;-45
2022/04/20 06:14:33;;;;;;;4.13;3.70;;;15.30;37.40;;;;;;5027183;28;20446;-47
2022/04/20 06:16:59;;;;;;;5.77;4.57;;;15.40;37.40;;;;;;5029285;28;20558;-46
2022/04/20 06:19:24;;;;;;;4.13;3.73;;;14.50;37.10;;;;;;5029602;28;20189;-45
2022/04/20 06:21:50;;;;;;;5.27;4.70;;;14.00;39.30;;;;;;5021425;28;20907;-45
2022/04/20 06:24:16;;;;;;;5.27;4.37;;;13.80;39.70;;;;;;5021441;28;20201;-44
2022/04/20 06:26:42;;;;;;;6.00;4.10;;;13.90;40.20;;;;;;5023994;28;20223;-47
2022/04/20 06:29:07;;;;;;;4.50;3.80;;;14.30;39.40;;;;;;5028262;28;20201;-45
2022/04/20 06:31:34;;;;;;;4.03;3.60;;;14.60;39.00;;;;;;5020182;28;20647;-45
2022/04/20 06:33:59;;;;;;;5.60;3.90;;;14.90;39.90;;;;;;5022909;28;20276;-44
2022/04/20 06:36:26;;;;;;;4.37;3.97;;;15.30;38.70;;;;;;5023278;28;20546;-45
2022/04/20 06:38:51;;;;;;;4.50;4.00;;;15.70;37.70;;;;;;5026502;28;20201;-45
2022/04/20 06:41:18;;;;;;;5.60;4.40;;;15.90;37.00;;;;;;5027151;28;20438;-44
2022/04/20 06:43:43;;;;;;;18.37;4.00;;;16.20;36.60;;;;;;5020737;28;20193;-44
2022/04/20 06:46:09;;;;;;;7.60;4.10;;;16.20;36.90;;;;;;5019140;28;20447;-44
2022/04/20 06:48:35;;;;;;;4.77;4.37;;;16.10;37.80;;;;;;5026376;28;20233;-44
2022/04/20 06:51:03;;;;;;;5.13;4.40;;;15.70;36.10;;;;;;5028531;28;20227;-44
2022/04/20 06:58:57;;;;;;;3.40;3.10;;;16.00;38.90;;;;;;5026411;28;20479;-44
2022/04/20 07:01:23;;;;;;;4.17;3.80;;;16.00;38.60;;;;;;5022686;28;20437;-45
2022/04/20 07:03:48;;;;;;;3.63;3.27;;;16.20;36.80;;;;;;5023806;28;20201;-43
2022/04/20 07:06:14;;;;;;;3.93;3.63;;;16.10;37.90;;;;;;5020534;28;20189;-43
2022/04/20 07:08:40;;;;;;;5.27;3.73;;;15.50;36.80;;;;;;5025273;28;20239;-43
2022/04/20 07:11:07;;;;;;;5.43;3.50;;;14.50;37.30;;;;;;5017468;28;21227;-43
2022/04/20 07:13:33;;;;;;;4.10;3.63;;;14.10;38.40;;;;;;5021304;28;20448;-43
2022/04/20 07:15:59;;;;;;;3.93;3.63;;;13.60;38.80;;;;;;5019513;28;20447;-43
2022/04/20 07:18:24;;;;;;;6.50;3.37;;;13.40;39.10;;;;;;5026444;28;20490;-42
2022/04/20 07:20:51;;;;;;;4.20;3.80;;;13.40;39.40;;;;;;5026021;28;20204;-43
2022/04/20 07:23:17;;;;;;;3.80;3.50;;;13.70;39.00;;;;;;5028129;28;20201;-44
2022/04/20 07:25:43;;;;;;;5.30;4.07;;;14.20;38.80;;;;;;5027659;28;20440;-43
2022/04/20 07:28:09;;;;;;;4.23;3.83;;;14.40;36.80;;;;;;5025670;28;20440;-42
2022/04/20 07:30:36;;;;;;;4.20;3.80;;;13.90;37.20;;;;;;5026066;28;20270;-42
2022/04/20 07:33:02;;;;;;;4.43;4.13;;;13.30;38.10;;;;;;5019631;28;20575;-42
2022/04/20 07:35:29;;;;;;;6.10;3.43;;;13.10;38.90;;;;;;5024489;28;20437;-43
2022/04/20 07:37:55;;;;;;;2.87;2.67;;;13.10;40.70;;;;;;5028317;28;20436;-42
2022/04/20 07:40:21;;;;;;;5.63;2.93;;;13.40;41.10;;;;;;5020836;28;20474;-42
2022/04/20 07:42:50;;;;;;;4.80;3.30;;;14.30;40.30;;;;;;5028131;28;20509;-42
2022/04/20 07:45:15;;;;;;;3.50;3.20;;;15.00;38.30;;;;;;5020862;28;20863;-42
2022/04/20 07:47:41;;;;;;;3.40;3.00;;;15.60;37.50;;;;;;5021426;28;20506;-42
2022/04/20 07:50:20;;;;;;;3.30;3.00;;;16.10;36.20;;;;;;5025477;28;20282;-42
2022/04/20 07:52:49;;;;;;;3.53;2.57;;;16.30;35.40;;;;;;5021319;28;20532;-42
2022/04/20 07:55:23;;;;;;;3.40;2.70;;;16.40;35.10;;;;;;5016901;28;20456;-42
2022/04/20 07:57:50;;;;;;;3.80;2.93;;;16.70;35.20;;;;;;5029589;28;20436;-42
2022/04/20 08:00:17;;;;;;;3.33;3.00;;;16.80;34.60;;;;;;5028656;28;20950;-42
2022/04/20 08:02:44;;;;;;;3.20;2.77;;;17.30;34.10;;;;;;5028492;28;20448;-42
2022/04/20 08:05:11;;;;;;;7.03;3.10;;;17.60;33.70;;;;;;5026255;28;20506;-42
2022/04/20 08:07:36;;;;;;;3.20;2.90;;;17.90;32.90;;;;;;5027509;28;20440;-42
2022/04/20 08:10:07;;;;;;;3.13;2.83;;;18.10;32.50;;;;;;5024270;28;20502;-42
2022/04/20 08:12:40;;;;;;;3.00;2.70;;;17.90;33.50;;;;;;5026003;28;20963;-43
2022/04/20 08:15:08;;;;;;;3.73;3.27;;;18.10;33.70;;;;;;5033679;28;20809;-42
2022/04/20 08:17:34;;;;;;;4.20;2.97;;;18.30;32.60;;;;;;5030860;28;20448;-42
2022/04/20 08:20:00;;;;;;;4.30;3.00;;;18.50;33.50;;;;;;5031621;28;20447;-42
2022/04/20 08:22:26;;;;;;;3.90;3.43;;;18.70;32.50;;;;;;5024097;28;20448;-42
2022/04/20 08:24:53;;;;;;;3.90;3.47;;;19.10;32.80;;;;;;5025507;28;20193;-42
2022/04/20 08:27:20;;;;;;;3.43;3.17;;;19.30;32.40;;;;;;5031253;28;20454;-42
2022/04/20 08:29:47;;;;;;;3.60;3.30;;;19.30;32.00;;;;;;5030566;28;20583;-42
2022/04/20 08:32:16;;;;;;;3.90;3.50;;;19.50;33.00;;;;;;5032243;28;20487;-43
2022/04/20 08:34:45;;;;;;;3.23;2.97;;;19.70;32.20;;;;;;5022122;28;20483;-42
2022/04/20 08:37:11;;;;;;;3.57;3.33;;;19.90;32.20;;;;;;5027083;28;20907;-42
2022/04/20 08:39:39;;;;;;;5.27;2.03;;;19.90;31.20;;;;;;5031712;28;20447;-42
2022/04/20 08:42:06;;;;;;;3.50;2.73;;;20.10;32.80;;;;;;5031800;28;20494;-42
2022/04/20 08:44:35;;;;;;;4.40;3.03;;;20.30;33.20;;;;;;5029669;28;20443;-42
2022/04/20 08:47:02;;;;;;;7.20;2.47;;;20.40;30.10;;;;;;5031096;28;21035;-42
2022/04/20 08:49:27;;;;;;;3.73;2.00;;;20.60;29.70;;;;;;5024745;28;20549;-43
2022/04/20 08:54:39;;;;;;;2.10;2.00;;;20.80;30.00;;;;;;5029882;28;20255;-43
2022/04/20 08:57:18;;;;;;;3.53;2.80;;;21.00;30.60;;;;;;5026385;28;20842;-41
2022/04/20 08:59:46;;;;;;;4.23;2.17;;;21.10;29.70;;;;;;5027752;28;20455;-41
2022/04/20 09:02:12;;;;;;;2.90;2.70;;;21.40;28.90;;;;;;5032733;28;20428;-41
2022/04/20 09:04:39;;;;;;;3.87;3.10;;;21.40;27.30;;;;;;5028039;28;20478;-41
2022/04/20 09:07:10;;;;;;;3.47;3.17;;;21.30;27.80;;;;;;5024210;28;20444;-41
2022/04/20 09:09:36;;;;;;;3.40;3.10;;;21.20;27.60;;;;;;5027332;28;20544;-41
2022/04/20 09:12:07;;;;;;;3.30;3.00;;;21.20;27.80;;;;;;5022493;28;21013;-41
2022/04/20 09:14:33;;;;;;;3.10;2.90;;;20.80;27.30;;;;;;5030423;28;20856;-41
2022/04/20 09:17:01;;;;;;;2.47;2.27;;;20.50;28.50;;;;;;5030264;28;20821;-41
2022/04/20 09:19:28;;;;;;;3.30;2.77;;;20.50;28.20;;;;;;5031466;28;20463;-41
2022/04/20 09:21:55;;;;;;;3.93;2.73;;;20.70;27.50;;;;;;5030611;28;20431;-41
2022/04/20 09:24:21;;;;;;;3.40;2.70;;;20.70;26.70;;;;;;5028854;28;20440;-41
2022/04/20 09:26:54;;;;;;;3.40;3.03;;;20.90;27.40;;;;;;5030909;28;20454;-41
2022/04/20 09:29:20;;;;;;;3.60;3.30;;;20.90;27.40;;;;;;5030244;28;20440;-42
2022/04/20 09:31:48;;;;;;;6.10;3.30;;;19.80;27.10;;;;;;5021631;28;20483;-40
2022/04/20 09:34:29;;;;;;;3.43;2.70;;;19.70;27.90;;;;;;5022986;28;21502;-43
2022/04/20 09:36:57;;;;;;;4.07;2.87;;;20.00;28.90;;;;;;5026015;28;20475;-42
2022/04/20 09:39:25;;;;;;;2.90;2.60;;;20.40;27.70;;;;;;5024714;28;20441;-42
2022/04/20 09:41:59;;;;;;;3.20;2.53;;;20.90;28.10;;;;;;5025278;28;20561;-42
2022/04/20 09:44:29;;;;;;;2.90;2.70;;;21.30;27.40;;;;;;5029917;28;20547;-42
2022/04/20 09:49:56;;;;;;;2.40;2.20;;;21.30;26.70;;;;;;5029767;28;20462;-42
2022/04/20 09:52:39;;;;;;;2.80;2.50;;;20.80;26.50;;;;;;5021631;28;20549;-42
2022/04/20 09:55:06;;;;;;;4.13;2.90;;;20.70;27.90;;;;;;5027346;28;20556;-42
2022/04/20 09:57:34;;;;;;;3.27;2.97;;;21.00;27.10;;;;;;5021327;28;20432;-42
2022/04/20 10:00:00;;;;;;;3.03;2.73;;;20.90;26.40;;;;;;5028509;28;20498;-42
2022/04/20 10:02:29;;;;;;;2.80;2.50;;;21.00;27.80;;;;;;5028509;28;20458;-44
2022/04/20 10:04:55;;;;;;;4.40;2.50;;;21.60;27.20;;;;;;5027035;28;20845;-42
2022/04/20 10:07:21;;;;;;;2.87;2.67;;;21.80;26.00;;;;;;5029218;28;20539;-42
2022/04/20 10:09:47;;;;;;;2.60;2.40;;;21.90;26.80;;;;;;5017762;28;20515;-42
2022/04/20 10:12:15;;;;;;;2.90;2.70;;;22.10;25.20;;;;;;5026699;28;20221;-42
2022/04/20 10:17:28;;;;;;;3.17;2.87;;;22.50;25.40;;;;;;5028004;28;20521;-42
2022/04/20 10:19:54;;;;;;;2.20;2.10;;;22.70;25.20;;;;;;5025634;28;21049;-42
2022/04/20 10:22:21;;;;;;;2.17;1.97;;;22.80;25.10;;;;;;5025289;28;20534;-42
2022/04/20 10:24:53;;;;;;;3.57;2.33;;;22.40;24.70;;;;;;5029794;28;20923;-42
2022/04/20 10:27:27;;;;;;;3.03;2.73;;;22.50;25.40;;;;;;5029534;28;20432;-42
2022/04/20 10:29:57;;;;;;;2.40;2.20;;;23.10;25.00;;;;;;5024837;28;20443;-42
2022/04/20 10:32:30;;;;;;;2.93;2.73;;;23.40;24.00;;;;;;5024561;28;20487;-42
2022/04/20 10:34:58;;;;;;;2.40;2.20;;;23.30;24.40;;;;;;5025319;28;20448;-42
2022/04/20 10:37:25;;;;;;;2.90;2.60;;;22.70;24.40;;;;;;5025911;28;20962;-42
2022/04/20 10:39:53;;;;;;;2.67;2.47;;;22.70;24.50;;;;;;5012363;28;20444;-42
2022/04/20 10:42:20;;;;;;;4.53;3.13;;;22.40;23.40;;;;;;5023318;28;20517;-42
2022/04/20 10:45:11;;;;;;;2.83;2.63;;;22.00;25.60;;;;;;5028778;28;20480;-42
2022/04/20 10:47:42;;;;;;;4.00;2.87;;;22.30;25.50;;;;;;5019957;28;21040;-41
2022/04/20 10:50:15;;;;;;;5.00;2.20;;;22.30;24.60;;;;;;5029572;28;20448;-41
2022/04/20 10:52:46;;;;;;;3.17;2.63;;;22.70;25.10;;;;;;5028042;28;20491;-41
2022/04/20 10:55:12;;;;;;;2.80;2.57;;;23.10;24.90;;;;;;5027447;28;20452;-42
2022/04/20 10:57:42;;;;;;;7.10;2.60;;;23.40;24.00;;;;;;5029305;28;20443;-42
2022/04/20 11:00:17;;;;;;;2.77;2.50;;;23.10;23.00;;;;;;5016991;28;20939;-42
2022/04/20 11:02:54;;;;;;;4.00;2.70;;;22.90;23.80;;;;;;5024176;28;20455;-42
2022/04/20 11:05:24;;;;;;;3.03;2.83;;;23.00;24.70;;;;;;5024803;28;20547;-41
2022/04/20 11:08:14;;;;;;;3.40;2.50;;;23.40;24.10;;;;;;5027089;28;20439;-42
2022/04/20 11:18:38;;;;;;;3.47;2.50;;;24.00;24.60;;;;;;5011558;28;20485;-42
2022/04/20 11:19:52;;;;;;;2.50;2.30;;;24.60;22.00;;;;;;5023420;28;21105;-42
2022/04/20 11:22:18;;;;;;;2.60;2.50;;;24.60;23.10;;;;;;5027514;28;20486;-42
2022/04/20 11:24:44;;;;;;;4.37;2.83;;;24.40;22.10;;;;;;5025654;28;20464;-42
2022/04/20 11:27:11;;;;;;;3.33;3.00;;;24.50;22.90;;;;;;5026725;28;20530;-42
2022/04/20 11:29:38;;;;;;;3.20;2.90;;;24.70;22.20;;;;;;5028599;28;20451;-42
2022/04/20 11:32:10;;;;;;;4.43;3.43;;;24.90;22.70;;;;;;5023412;28;20565;-42
2022/04/20 11:34:38;;;;;;;3.10;2.90;;;23.70;22.30;;;;;;5021293;28;20445;-42
2022/04/20 11:37:06;;;;;;;2.83;2.63;;;22.90;23.30;;;;;;5027053;28;20459;-41
2022/04/20 11:39:33;;;;;;;3.13;2.93;;;22.80;23.50;;;;;;5028373;28;20665;-43
2022/04/20 11:42:08;;;;;;;3.13;2.90;;;22.20;23.00;;;;;;5019867;28;20444;-40
2022/04/20 11:44:40;;;;;;;2.77;2.57;;;22.40;24.10;;;;;;5028734;28;20428;-41
2022/04/20 11:47:11;;;;;;;3.23;3.03;;;23.20;24.40;;;;;;5026178;28;20483;-41
2022/04/20 11:49:46;;;;;;;3.00;2.80;;;23.90;23.40;;;;;;5027123;28;20444;-41
2022/04/20 11:52:14;;;;;;;3.30;2.83;;;24.20;24.00;;;;;;5027809;28;20848;-41
2022/04/20 11:54:41;;;;;;;8.43;2.57;;;24.50;23.40;;;;;;5024488;28;21041;-41
2022/04/20 11:57:08;;;;;;;6.30;2.80;;;24.70;22.90;;;;;;5015025;28;20540;-41
2022/04/20 11:59:41;;;;;;;5.50;2.70;;;24.60;22.80;;;;;;5027333;28;20440;-41
2022/04/20 12:02:07;;;;;;;2.57;2.37;;;24.70;21.70;;;;;;5023599;28;20440;-41
2022/04/20 12:04:32;;;;;;;2.90;2.70;;;25.00;22.70;;;;;;5019694;28;20463;-43
2022/04/20 12:06:59;;;;;;;5.93;3.00;;;25.30;21.50;;;;;;5016699;28;20201;-43
2022/04/20 12:09:29;;;;;;;2.30;2.10;;;25.40;21.30;;;;;;5023370;28;20276;-42
2022/04/20 12:12:00;;;;;;;3.83;2.60;;;25.30;22.10;;;;;;5027912;28;20498;-42
2022/04/20 12:14:34;;;;;;;2.57;2.37;;;25.70;23.40;;;;;;5029633;28;20442;-42
2022/04/20 12:17:11;;;;;;;3.03;2.80;;;25.70;22.50;;;;;;5029364;28;20482;-41
2022/04/20 12:19:38;;;;;;;3.13;2.50;;;25.70;21.40;;;;;;5028817;28;20443;-41
2022/04/20 12:22:05;;;;;;;3.03;2.63;;;25.80;21.70;;;;;;5026754;28;20440;-41
2022/04/20 12:24:30;;;;;;;3.83;2.70;;;26.00;21.40;;;;;;5028931;28;20432;-42
2022/04/20 12:26:57;;;;;;;4.40;2.40;;;26.30;21.70;;;;;;5029162;28;20428;-41
2022/04/20 12:29:25;;;;;;;2.33;2.20;;;26.50;21.80;;;;;;5018017;28;20618;-41
2022/04/20 12:31:55;;;;;;;3.37;2.33;;;26.60;22.00;;;;;;5028800;28;20505;-42
2022/04/20 12:34:24;;;;;;;2.73;2.53;;;26.80;20.30;;;;;;5027430;28;20983;-41
2022/04/20 12:37:04;;;;;;;2.50;2.30;;;26.90;21.40;;;;;;5028977;28;20528;-41
2022/04/20 12:39:42;;;;;;;2.73;2.50;;;27.20;21.80;;;;;;5027192;28;20448;-41
2022/04/20 12:42:17;;;;;;;4.10;2.27;;;26.90;19.90;;;;;;5026053;28;20452;-41
2022/04/20 12:44:51;;;;;;;2.40;2.07;;;26.70;20.30;;;;;;5022613;28;20448;-41
2022/04/20 12:47:17;;;;;;;2.70;2.50;;;26.60;20.40;;;;;;5029790;28;20843;-41
2022/04/20 12:49:44;;;;;;;2.90;2.70;;;26.70;21.00;;;;;;5027346;28;20451;-41
2022/04/20 12:52:16;;;;;;;2.70;2.50;;;26.70;19.70;;;;;;5028352;28;20282;-41
2022/04/20 12:55:04;;;;;;;2.30;2.20;;;26.50;20.60;;;;;;5022068;28;20490;-41
2022/04/20 13:03:20;;;;;;;2.60;2.40;;;26.20;20.40;;;;;;5032656;28;20431;-41
2022/04/20 13:05:46;;;;;;;3.07;2.13;;;26.00;20.50;;;;;;5031236;28;20495;-42
2022/04/20 13:08:13;;;;;;;3.33;3.10;;;26.40;21.60;;;;;;5032130;28;20470;-41
2022/04/20 13:10:41;;;;;;;2.60;2.20;;;26.10;20.00;;;;;;5030724;28;20855;-42
2022/04/20 13:13:07;;;;;;;2.33;2.13;;;26.10;21.80;;;;;;5031382;28;20488;-41
2022/04/20 13:15:34;;;;;;;2.87;2.67;;;26.50;21.40;;;;;;5017496;28;20924;-42
2022/04/20 13:18:00;;;;;;;2.20;2.07;;;26.90;22.50;;;;;;5031266;28;20205;-42
2022/04/20 13:20:27;;;;;;;2.20;2.10;;;27.10;20.60;;;;;;5031256;28;21132;-41
2022/04/20 13:22:53;;;;;;;3.20;2.13;;;27.30;20.80;;;;;;5032023;28;20527;-42
2022/04/20 13:28:03;;;;;;;3.00;2.80;;;27.50;20.30;;;;;;5032722;28;20519;-42
2022/04/20 13:30:38;;;;;;;2.47;2.37;;;27.60;20.30;;;;;;5030931;28;20961;-42